Time;durP1;ratioP1;P1;durP2;ratioP2;P2;SDS_P1;SDS_P2;PMS_P1;PMS_P2;Temp;Humidity;BMP_temperature;BMP_pressure;BME280_temperature;BME280_humidity;BME280_pressure;Samples;Min_cycle;Max_cycle;Signal;HPM_P1;HPM_P2
2021/12/30 00:01:39;;;;;;;40.42;7.47;;;9.00;99.90;;;;;;5064332;28;20041;-67
2021/12/30 00:04:06;;;;;;;47.92;7.03;;;9.00;99.90;;;;;;5063568;28;20041;-67
2021/12/30 00:06:38;;;;;;;50.42;7.05;;;9.00;99.90;;;;;;5064099;28;20044;-67
2021/12/30 00:09:06;;;;;;;49.88;6.95;;;9.00;99.90;;;;;;5065484;28;20100;-67
2021/12/30 00:11:31;;;;;;;43.95;6.18;;;9.00;99.90;;;;;;5059788;28;20082;-67
2021/12/30 00:13:57;;;;;;;44.20;5.82;;;8.90;99.90;;;;;;5067740;28;20124;-67
2021/12/30 00:16:23;;;;;;;45.78;6.63;;;8.90;99.90;;;;;;5060836;28;20462;-67
2021/12/30 00:18:49;;;;;;;47.55;6.82;;;8.90;99.90;;;;;;5061667;28;20079;-67
2021/12/30 00:21:15;;;;;;;39.30;6.43;;;8.90;99.90;;;;;;5066822;28;20048;-67
2021/12/30 00:23:41;;;;;;;43.25;6.63;;;8.80;99.90;;;;;;5060934;28;20146;-67
2021/12/30 00:26:07;;;;;;;54.53;6.65;;;8.80;99.90;;;;;;5062175;28;20075;-67
2021/12/30 00:28:33;;;;;;;48.45;7.00;;;8.80;99.90;;;;;;5064141;28;20049;-67
2021/12/30 00:30:59;;;;;;;47.60;6.15;;;8.70;99.90;;;;;;5062118;28;20052;-67
2021/12/30 00:33:27;;;;;;;41.55;7.07;;;8.70;99.90;;;;;;5058397;28;20044;-67
2021/12/30 00:35:54;;;;;;;45.90;6.28;;;8.60;99.90;;;;;;5063043;28;20115;-67
2021/12/30 00:38:20;;;;;;;45.17;6.10;;;8.60;99.90;;;;;;5070429;28;20109;-67
2021/12/30 00:40:46;;;;;;;44.70;6.05;;;8.60;99.90;;;;;;5063431;28;20134;-67
2021/12/30 00:43:12;;;;;;;46.50;6.57;;;8.50;99.90;;;;;;5063647;28;20459;-67
2021/12/30 00:45:38;;;;;;;50.15;6.00;;;8.40;99.90;;;;;;5062166;28;20079;-67
2021/12/30 00:48:05;;;;;;;44.33;6.15;;;8.40;99.90;;;;;;5062737;28;20064;-67
2021/12/30 00:50:31;;;;;;;35.45;5.95;;;8.40;99.90;;;;;;5062227;28;20059;-67
2021/12/30 00:52:59;;;;;;;47.10;6.57;;;8.40;99.90;;;;;;5063284;28;20044;-67
2021/12/30 00:55:25;;;;;;;42.67;6.68;;;8.40;99.90;;;;;;5062214;28;20098;-67
2021/12/30 00:57:51;;;;;;;49.50;7.30;;;8.30;99.90;;;;;;5062129;28;20127;-67
2021/12/30 01:00:19;;;;;;;49.25;7.57;;;8.30;99.90;;;;;;5064458;28;20127;-67
2021/12/30 01:02:45;;;;;;;43.22;6.10;;;8.30;99.90;;;;;;5064314;28;20036;-66
2021/12/30 01:05:11;;;;;;;34.78;5.82;;;8.40;99.90;;;;;;5061880;28;20523;-66
2021/12/30 01:07:38;;;;;;;43.05;5.93;;;8.30;99.90;;;;;;5064221;28;20312;-66
2021/12/30 01:10:06;;;;;;;46.78;7.30;;;8.30;99.90;;;;;;5059199;28;20051;-66
2021/12/30 01:12:32;;;;;;;42.05;6.30;;;8.30;99.90;;;;;;5073804;28;20049;-66
2021/12/30 01:14:58;;;;;;;50.55;6.82;;;8.40;99.90;;;;;;5066362;28;20032;-66
2021/12/30 01:19:51;;;;;;;47.90;6.15;;;8.30;99.90;;;;;;5061227;28;20542;-66
2021/12/30 01:22:23;;;;;;;43.30;6.35;;;8.20;99.90;;;;;;5062524;28;20044;-67
2021/12/30 01:24:50;;;;;;;54.53;6.72;;;8.20;99.90;;;;;;5063734;28;20143;-67
2021/12/30 01:27:17;;;;;;;47.72;6.43;;;8.20;99.90;;;;;;5059949;28;22067;-67
2021/12/30 01:29:43;;;;;;;41.55;6.15;;;8.20;99.90;;;;;;5064559;28;20041;-67
2021/12/30 01:32:09;;;;;;;40.67;6.43;;;8.20;99.90;;;;;;5061514;28;20036;-67
2021/12/30 01:34:35;;;;;;;39.65;5.63;;;8.20;99.90;;;;;;5060588;28;20659;-67
2021/12/30 01:37:03;;;;;;;44.60;7.32;;;8.20;99.90;;;;;;5076893;28;20048;-67
2021/12/30 01:39:29;;;;;;;44.22;6.47;;;8.20;99.90;;;;;;5066443;28;20045;-67
2021/12/30 01:41:55;;;;;;;40.03;7.20;;;8.10;99.90;;;;;;5062291;28;20055;-67
2021/12/30 01:44:22;;;;;;;41.05;7.55;;;8.20;99.90;;;;;;5063547;28;20131;-67
2021/12/30 01:46:49;;;;;;;51.15;7.78;;;8.20;99.90;;;;;;5060046;28;20050;-67
2021/12/30 01:49:15;;;;;;;47.25;6.25;;;8.10;99.90;;;;;;5061078;28;20050;-67
2021/12/30 01:51:42;;;;;;;47.28;6.82;;;8.20;99.90;;;;;;5058611;28;20064;-67
2021/12/30 01:54:09;;;;;;;47.97;5.97;;;8.10;99.90;;;;;;5067693;28;20044;-67
2021/12/30 01:56:35;;;;;;;51.17;6.60;;;8.10;99.90;;;;;;5064995;28;20036;-67
2021/12/30 01:59:02;;;;;;;54.10;6.63;;;8.00;99.90;;;;;;5065343;28;20432;-67
2021/12/30 02:01:28;;;;;;;46.15;7.30;;;8.10;99.90;;;;;;5069362;28;20049;-67
2021/12/30 02:03:54;;;;;;;42.10;5.68;;;8.10;99.90;;;;;;5062725;28;20040;-67
2021/12/30 02:06:20;;;;;;;41.55;6.78;;;8.00;99.90;;;;;;5065187;28;20029;-67
2021/12/30 02:08:46;;;;;;;53.45;6.95;;;8.00;99.90;;;;;;5067267;28;20040;-66
2021/12/30 02:11:11;;;;;;;55.45;6.97;;;8.00;99.90;;;;;;5066981;28;20044;-66
2021/12/30 02:13:37;;;;;;;47.72;7.05;;;8.00;99.90;;;;;;5065960;28;20123;-67
2021/12/30 02:16:03;;;;;;;57.25;7.65;;;8.00;99.90;;;;;;5064706;28;20036;-67
2021/12/30 02:18:30;;;;;;;56.35;8.65;;;8.00;99.90;;;;;;5062762;28;20025;-67
2021/12/30 02:20:58;;;;;;;52.50;10.32;;;8.10;99.90;;;;;;5078178;28;21486;-67
2021/12/30 02:23:27;;;;;;;64.93;12.98;;;8.20;99.90;;;;;;5065810;28;20554;-66
2021/12/30 02:25:55;;;;;;;68.97;13.52;;;8.20;99.90;;;;;;5066854;28;20037;-67
2021/12/30 02:28:26;;;;;;;66.65;12.25;;;8.40;99.90;;;;;;5061866;28;20044;-67
2021/12/30 02:30:54;;;;;;;66.53;13.98;;;8.40;99.90;;;;;;5062887;28;20044;-67
2021/12/30 02:33:20;;;;;;;74.65;15.25;;;8.40;99.90;;;;;;5068199;28;20045;-67
2021/12/30 02:35:47;;;;;;;67.57;14.23;;;8.50;99.90;;;;;;5064346;28;20353;-67
2021/12/30 02:38:14;;;;;;;85.38;16.20;;;8.60;99.90;;;;;;5064735;28;20047;-67
2021/12/30 02:40:46;;;;;;;83.60;17.52;;;8.60;99.90;;;;;;5065873;28;20503;-67
2021/12/30 02:43:16;;;;;;;74.07;16.38;;;8.60;99.90;;;;;;5062458;28;20047;-67
2021/12/30 02:45:43;;;;;;;73.63;17.40;;;8.70;99.90;;;;;;5062913;28;20736;-67
2021/12/30 02:48:14;;;;;;;77.15;18.15;;;8.80;99.90;;;;;;5063350;28;20041;-67
2021/12/30 02:50:40;;;;;;;68.22;17.73;;;8.90;99.90;;;;;;5067835;28;20086;-67
2021/12/30 02:53:06;;;;;;;77.95;18.80;;;8.90;99.90;;;;;;5062308;28;20063;-67
2021/12/30 02:55:32;;;;;;;85.90;19.27;;;9.00;99.90;;;;;;5062077;28;20032;-67
2021/12/30 02:57:58;;;;;;;84.97;18.65;;;9.10;99.90;;;;;;5062289;28;20039;-67
2021/12/30 03:00:23;;;;;;;77.53;18.38;;;9.10;99.90;;;;;;5061936;28;20055;-67
2021/12/30 03:02:49;;;;;;;94.65;19.77;;;9.10;99.90;;;;;;5063152;28;20119;-67
2021/12/30 03:05:22;;;;;;;85.55;18.08;;;9.20;99.90;;;;;;5059452;28;20139;-67
2021/12/30 03:07:48;;;;;;;85.80;17.98;;;9.20;99.90;;;;;;5055390;28;20039;-67
2021/12/30 03:10:17;;;;;;;76.97;19.35;;;9.20;99.90;;;;;;5063820;28;20048;-67
2021/12/30 03:12:43;;;;;;;67.00;16.55;;;9.30;99.90;;;;;;5069161;28;20052;-67
2021/12/30 03:15:14;;;;;;;78.90;18.35;;;9.20;99.90;;;;;;5065718;28;20048;-67
2021/12/30 03:17:40;;;;;;;68.32;16.88;;;9.30;99.90;;;;;;5062753;28;20036;-67
2021/12/30 03:20:09;;;;;;;62.28;17.23;;;9.40;99.90;;;;;;5064904;28;21544;-67
2021/12/30 03:22:39;;;;;;;73.65;17.33;;;9.40;99.90;;;;;;5062125;28;20032;-67
2021/12/30 03:25:07;;;;;;;62.05;15.70;;;9.50;99.90;;;;;;5060416;28;20041;-67
2021/12/30 03:27:33;;;;;;;78.38;18.17;;;9.50;99.90;;;;;;5063669;28;20129;-66
2021/12/30 03:29:58;;;;;;;71.75;17.40;;;9.50;99.90;;;;;;5060761;28;20496;-65
2021/12/30 03:32:24;;;;;;;68.07;16.30;;;9.50;99.90;;;;;;5062062;28;20489;-66
2021/12/30 03:34:50;;;;;;;69.20;15.60;;;9.50;99.90;;;;;;5065558;28;20381;-66
2021/12/30 03:37:16;;;;;;;70.47;17.25;;;9.60;99.90;;;;;;5060456;28;20082;-66
2021/12/30 03:39:41;;;;;;;77.95;17.30;;;9.60;99.90;;;;;;5061410;28;20127;-66
2021/12/30 03:42:07;;;;;;;76.53;15.68;;;9.60;99.90;;;;;;5062044;28;21476;-67
2021/12/30 03:44:33;;;;;;;80.80;18.00;;;9.70;99.90;;;;;;5060959;28;20052;-66
2021/12/30 03:46:59;;;;;;;69.88;15.77;;;9.70;99.90;;;;;;5056560;28;20419;-66
2021/12/30 03:49:25;;;;;;;60.10;14.95;;;9.70;99.90;;;;;;5060655;28;20152;-66
2021/12/30 03:51:53;;;;;;;69.80;15.13;;;9.70;99.90;;;;;;5057960;28;20151;-66
2021/12/30 03:54:19;;;;;;;66.80;14.70;;;9.70;99.90;;;;;;5060075;28;20044;-66
2021/12/30 03:56:45;;;;;;;67.53;15.07;;;9.80;99.90;;;;;;5062945;28;20045;-66
2021/12/30 03:59:11;;;;;;;85.05;16.52;;;9.80;99.90;;;;;;5064466;28;20126;-67
2021/12/30 04:01:37;;;;;;;75.82;15.65;;;9.80;99.90;;;;;;5061576;28;20123;-67
2021/12/30 04:04:04;;;;;;;75.18;15.45;;;9.80;99.90;;;;;;5061449;28;20029;-66
2021/12/30 04:06:30;;;;;;;74.82;13.43;;;9.80;99.90;;;;;;5058370;28;20052;-66
2021/12/30 04:08:57;;;;;;;75.03;15.63;;;9.80;99.90;;;;;;5061220;28;20102;-66
2021/12/30 04:11:30;;;;;;;72.35;14.15;;;9.70;99.90;;;;;;5063004;28;20044;-66
2021/12/30 04:13:56;;;;;;;76.97;14.73;;;9.70;99.90;;;;;;5068651;28;20043;-66
2021/12/30 04:16:21;;;;;;;63.53;13.50;;;9.80;99.90;;;;;;5063375;28;20036;-66
2021/12/30 04:18:48;;;;;;;74.50;14.85;;;9.80;99.90;;;;;;5059785;28;20037;-66
2021/12/30 04:21:19;;;;;;;64.82;15.02;;;9.80;99.90;;;;;;5062567;28;20044;-66
2021/12/30 04:23:45;;;;;;;55.63;14.15;;;9.80;99.90;;;;;;5062596;28;20036;-66
2021/12/30 04:26:11;;;;;;;85.28;15.70;;;9.80;99.90;;;;;;5064174;28;20055;-66
2021/12/30 04:28:37;;;;;;;63.25;15.25;;;9.80;99.90;;;;;;5060781;28;20032;-66
2021/12/30 04:31:03;;;;;;;82.50;16.10;;;9.90;99.90;;;;;;5063625;28;20097;-66
2021/12/30 04:33:29;;;;;;;79.20;15.85;;;10.00;99.90;;;;;;5061917;28;20032;-66
2021/12/30 04:35:56;;;;;;;59.05;14.90;;;10.10;99.90;;;;;;5064938;28;20040;-66
2021/12/30 04:38:27;;;;;;;69.45;16.10;;;10.10;99.90;;;;;;5060183;28;20049;-66
2021/12/30 04:40:54;;;;;;;72.03;16.40;;;10.20;99.90;;;;;;5059872;28;20070;-66
2021/12/30 04:43:20;;;;;;;68.70;17.10;;;10.20;99.90;;;;;;5061830;28;20124;-66
2021/12/30 04:45:49;;;;;;;82.65;18.30;;;10.30;99.90;;;;;;5062050;28;20064;-66
2021/12/30 04:48:16;;;;;;;82.63;17.13;;;10.30;99.90;;;;;;5056826;28;20048;-66
2021/12/30 04:50:44;;;;;;;69.30;18.23;;;10.30;99.90;;;;;;5046537;28;20044;-66
2021/12/30 04:53:10;;;;;;;74.65;18.60;;;10.30;99.90;;;;;;5064375;28;20058;-66
2021/12/30 04:55:36;;;;;;;69.68;17.98;;;10.40;99.90;;;;;;5059629;28;20044;-66
2021/12/30 04:58:02;;;;;;;64.38;19.17;;;10.40;99.90;;;;;;5060242;28;20568;-66
2021/12/30 05:00:27;;;;;;;56.22;17.90;;;10.50;99.90;;;;;;5059493;28;20080;-66
2021/12/30 05:05:22;;;;;;;56.95;17.50;;;10.50;99.90;;;;;;5060242;28;20394;-66
2021/12/30 05:07:47;;;;;;;56.25;17.42;;;10.50;99.90;;;;;;5063939;28;20048;-66
2021/12/30 05:10:13;;;;;;;53.38;16.77;;;10.50;99.90;;;;;;5065033;28;20036;-66
2021/12/30 05:12:39;;;;;;;44.70;16.50;;;10.50;99.90;;;;;;5061503;28;20074;-66
2021/12/30 05:15:05;;;;;;;63.05;18.35;;;10.50;99.90;;;;;;5068901;28;20045;-66
2021/12/30 05:17:30;;;;;;;46.67;16.83;;;10.60;99.90;;;;;;5065756;28;20036;-66
2021/12/30 05:19:56;;;;;;;45.03;16.65;;;10.60;99.90;;;;;;5061922;28;20385;-66
2021/12/30 05:22:22;;;;;;;45.20;16.20;;;10.60;99.90;;;;;;5065224;28;20064;-66
2021/12/30 05:24:47;;;;;;;38.90;16.13;;;10.70;99.90;;;;;;5064630;28;20167;-66
2021/12/30 05:27:13;;;;;;;41.00;15.57;;;10.70;99.90;;;;;;5065562;28;20035;-66
2021/12/30 05:29:39;;;;;;;40.25;16.33;;;10.70;99.90;;;;;;5066518;28;20094;-66
2021/12/30 05:32:05;;;;;;;39.60;15.55;;;10.70;99.90;;;;;;5059557;28;20052;-66
2021/12/30 05:34:30;;;;;;;39.13;15.80;;;10.80;99.90;;;;;;5063556;28;20545;-66
2021/12/30 05:36:56;;;;;;;60.53;19.38;;;10.80;99.90;;;;;;5065934;28;20072;-66
2021/12/30 05:39:22;;;;;;;56.35;20.60;;;10.80;99.90;;;;;;5064780;28;20046;-66
2021/12/30 05:41:47;;;;;;;60.33;21.80;;;10.90;99.90;;;;;;5063434;28;20036;-66
2021/12/30 05:44:13;;;;;;;56.63;21.30;;;10.80;99.90;;;;;;5064616;28;20079;-66
2021/12/30 05:46:39;;;;;;;68.35;23.48;;;10.90;99.90;;;;;;5065778;28;20052;-66
2021/12/30 05:49:04;;;;;;;77.78;25.85;;;10.90;99.90;;;;;;5065251;28;20042;-66
2021/12/30 05:51:30;;;;;;;73.20;25.55;;;10.90;99.90;;;;;;5065042;28;20040;-66
2021/12/30 05:53:56;;;;;;;72.78;24.80;;;11.00;99.90;;;;;;5060021;28;20036;-66
2021/12/30 05:56:21;;;;;;;85.95;27.15;;;11.00;99.90;;;;;;5060627;28;20461;-66
2021/12/30 05:58:47;;;;;;;102.18;29.80;;;11.00;99.90;;;;;;5061732;28;20033;-66
2021/12/30 06:01:13;;;;;;;83.88;26.60;;;11.10;99.90;;;;;;5060857;28;20033;-66
2021/12/30 06:03:39;;;;;;;95.00;28.88;;;11.10;99.90;;;;;;5062272;28;20468;-66
2021/12/30 06:06:04;;;;;;;92.90;28.00;;;11.10;99.90;;;;;;5062817;28;20029;-66
2021/12/30 06:08:31;;;;;;;94.78;30.13;;;11.20;99.90;;;;;;5058468;28;20483;-66
2021/12/30 06:10:56;;;;;;;88.88;28.35;;;11.20;99.90;;;;;;5061916;28;20492;-66
2021/12/30 06:13:22;;;;;;;91.95;28.45;;;11.20;99.90;;;;;;5064802;28;20043;-66
2021/12/30 06:15:48;;;;;;;113.05;29.88;;;11.30;99.90;;;;;;5064069;28;20072;-66
2021/12/30 06:18:13;;;;;;;111.10;31.45;;;11.30;99.90;;;;;;5064968;28;20048;-66
2021/12/30 06:20:39;;;;;;;100.00;28.77;;;11.30;99.90;;;;;;5066468;28;20401;-66
2021/12/30 06:23:05;;;;;;;99.40;28.33;;;11.30;99.90;;;;;;5065893;28;20040;-66
2021/12/30 06:25:30;;;;;;;88.88;26.00;;;11.40;99.90;;;;;;5064447;28;20044;-66
2021/12/30 06:27:57;;;;;;;85.57;25.85;;;11.40;99.90;;;;;;5063360;28;20036;-66
2021/12/30 06:30:22;;;;;;;96.10;27.63;;;11.40;99.90;;;;;;5068087;28;20040;-66
2021/12/30 06:32:48;;;;;;;94.10;27.17;;;11.40;99.90;;;;;;5064677;28;20451;-66
2021/12/30 06:35:14;;;;;;;76.70;24.95;;;11.40;99.90;;;;;;5059996;28;20048;-66
2021/12/30 06:37:40;;;;;;;109.10;27.77;;;11.50;99.90;;;;;;5066165;28;20037;-66
2021/12/30 06:40:09;;;;;;;92.57;26.90;;;11.50;99.90;;;;;;5067284;28;20142;-66
2021/12/30 06:42:34;;;;;;;89.28;27.17;;;11.50;99.90;;;;;;5063475;28;20036;-66
2021/12/30 06:45:00;;;;;;;72.88;24.77;;;11.50;99.90;;;;;;5058163;28;20252;-66
2021/12/30 06:47:26;;;;;;;97.60;28.13;;;11.50;99.90;;;;;;5065667;28;20045;-66
2021/12/30 06:49:58;;;;;;;71.60;22.95;;;11.50;99.90;;;;;;5063544;28;20075;-66
2021/12/30 06:52:24;;;;;;;70.82;23.30;;;11.60;99.90;;;;;;5061294;28;20068;-66
2021/12/30 06:54:49;;;;;;;82.82;23.48;;;11.50;99.90;;;;;;5060909;28;20334;-66
2021/12/30 06:57:15;;;;;;;74.03;22.00;;;11.50;99.90;;;;;;5061088;28;20456;-66
2021/12/30 06:59:41;;;;;;;57.50;20.98;;;11.50;99.90;;;;;;5060635;28;20396;-66
2021/12/30 07:02:07;;;;;;;52.67;18.17;;;11.60;99.90;;;;;;5065844;28;20044;-66
2021/12/30 07:04:33;;;;;;;55.72;19.80;;;11.50;99.90;;;;;;5063024;28;20036;-66
2021/12/30 07:06:58;;;;;;;53.75;19.50;;;11.60;99.90;;;;;;5060736;28;20064;-66
2021/12/30 07:09:25;;;;;;;61.60;18.23;;;11.60;99.90;;;;;;5056303;28;20083;-66
2021/12/30 07:11:51;;;;;;;52.13;17.70;;;11.60;99.90;;;;;;5059474;28;20069;-66
2021/12/30 07:14:18;;;;;;;43.72;16.83;;;11.60;99.90;;;;;;5065815;28;20135;-66
2021/12/30 07:16:44;;;;;;;34.55;14.82;;;11.60;99.90;;;;;;5064057;28;20463;-66
2021/12/30 07:19:11;;;;;;;38.05;14.65;;;11.60;99.90;;;;;;5060902;28;20109;-66
2021/12/30 07:21:36;;;;;;;32.47;12.93;;;11.70;99.90;;;;;;5060332;28;20073;-66
2021/12/30 07:24:03;;;;;;;32.58;12.43;;;11.60;99.90;;;;;;5059652;28;20068;-66
2021/12/30 07:26:28;;;;;;;21.63;9.30;;;11.60;99.90;;;;;;5057181;28;20452;-66
2021/12/30 07:28:54;;;;;;;20.95;9.20;;;11.70;99.90;;;;;;5060935;28;20076;-66
2021/12/30 07:31:20;;;;;;;13.15;6.90;;;11.70;99.90;;;;;;5065847;28;20122;-66
2021/12/30 07:33:45;;;;;;;12.65;6.60;;;11.70;99.90;;;;;;5060264;28;20094;-66
2021/12/30 07:36:11;;;;;;;10.43;5.75;;;11.60;99.90;;;;;;5061508;28;20047;-66
2021/12/30 07:38:37;;;;;;;9.90;4.72;;;11.70;99.90;;;;;;5063061;28;20039;-65
2021/12/30 07:41:04;;;;;;;12.32;5.80;;;11.70;99.90;;;;;;5062967;28;20403;-66
2021/12/30 07:43:31;;;;;;;10.90;4.82;;;11.60;99.90;;;;;;5062726;28;20126;-66
2021/12/30 07:45:56;;;;;;;8.60;4.45;;;11.70;99.90;;;;;;5062761;28;20503;-66
2021/12/30 07:48:22;;;;;;;10.52;5.07;;;11.70;99.90;;;;;;5062006;28;20043;-66
2021/12/30 07:50:49;;;;;;;7.55;4.55;;;11.70;99.90;;;;;;5065357;28;20040;-66
2021/12/30 07:53:16;;;;;;;8.23;4.32;;;11.70;99.90;;;;;;5056022;28;20041;-66
2021/12/30 07:55:41;;;;;;;8.27;4.18;;;11.70;99.90;;;;;;5061804;28;20045;-64
2021/12/30 07:58:07;;;;;;;7.22;4.68;;;11.70;99.90;;;;;;5055403;28;20506;-66
2021/12/30 08:00:33;;;;;;;7.88;5.43;;;11.70;99.90;;;;;;5059404;28;20087;-64
2021/12/30 08:02:59;;;;;;;11.07;6.18;;;11.70;99.90;;;;;;5055787;28;20071;-66
2021/12/30 08:05:26;;;;;;;8.38;4.97;;;11.70;99.90;;;;;;5059519;28;20504;-65
2021/12/30 08:07:52;;;;;;;9.90;6.25;;;11.70;99.90;;;;;;5054934;28;20120;-66
2021/12/30 08:10:19;;;;;;;7.45;5.30;;;11.70;99.90;;;;;;5061942;28;20453;-65
2021/12/30 08:12:46;;;;;;;8.95;6.13;;;11.70;99.90;;;;;;5055508;28;20145;-66
2021/12/30 08:15:13;;;;;;;11.02;6.22;;;11.80;99.90;;;;;;5063075;28;20037;-66
2021/12/30 08:17:40;;;;;;;10.68;5.95;;;11.80;99.90;;;;;;5058140;28;20119;-65
2021/12/30 08:20:08;;;;;;;8.77;5.35;;;11.80;99.90;;;;;;5055306;28;20114;-65
2021/12/30 08:22:34;;;;;;;7.68;4.93;;;11.80;99.90;;;;;;5061254;28;20040;-65
2021/12/30 08:25:01;;;;;;;9.73;6.13;;;11.80;99.90;;;;;;5057874;28;20044;-66
2021/12/30 08:27:27;;;;;;;11.00;6.13;;;11.80;99.90;;;;;;5053595;28;20033;-66
2021/12/30 08:29:53;;;;;;;11.00;6.53;;;11.90;99.90;;;;;;5055148;28;20110;-66
2021/12/30 08:32:19;;;;;;;11.45;7.22;;;11.90;99.90;;;;;;5057826;28;20055;-66
2021/12/30 08:34:45;;;;;;;11.02;7.45;;;12.00;99.90;;;;;;5062065;28;20032;-66
2021/12/30 08:37:12;;;;;;;14.30;9.50;;;11.90;99.90;;;;;;5061085;28;20064;-66
2021/12/30 08:39:42;;;;;;;19.60;10.07;;;12.00;99.90;;;;;;5056396;28;20037;-66
2021/12/30 08:42:19;;;;;;;16.27;10.63;;;12.00;99.90;;;;;;5056568;28;20072;-66
2021/12/30 08:44:46;;;;;;;23.13;10.68;;;12.10;99.90;;;;;;5057139;28;20044;-66
2021/12/30 08:47:13;;;;;;;22.95;9.85;;;12.00;99.90;;;;;;5056927;28;20060;-66
2021/12/30 08:49:41;;;;;;;20.45;10.68;;;12.10;99.90;;;;;;5066663;28;20137;-66
2021/12/30 08:52:09;;;;;;;16.15;9.68;;;12.10;99.90;;;;;;5061886;28;20086;-66
2021/12/30 08:54:36;;;;;;;18.08;9.63;;;12.20;99.90;;;;;;5069984;28;20045;-66
2021/12/30 08:57:03;;;;;;;21.55;9.15;;;12.10;99.90;;;;;;5064731;28;20565;-66
2021/12/30 08:59:29;;;;;;;18.65;8.40;;;12.20;99.90;;;;;;5062264;28;20047;-66
2021/12/30 09:01:57;;;;;;;14.52;6.10;;;12.20;99.90;;;;;;5071220;28;20064;-66
2021/12/30 09:04:23;;;;;;;11.98;5.88;;;12.20;99.90;;;;;;5064586;28;20028;-66
2021/12/30 09:06:49;;;;;;;14.57;5.30;;;12.20;99.90;;;;;;5065202;28;20063;-66
2021/12/30 09:09:14;;;;;;;10.77;4.68;;;12.20;99.90;;;;;;5064740;28;20042;-66
2021/12/30 09:11:40;;;;;;;15.48;4.97;;;12.20;99.90;;;;;;5060076;28;20028;-66
2021/12/30 09:14:06;;;;;;;14.88;4.78;;;12.20;99.90;;;;;;5057881;28;20097;-66
2021/12/30 09:16:32;;;;;;;10.90;4.10;;;12.30;99.90;;;;;;5061396;28;20176;-66
2021/12/30 09:18:58;;;;;;;14.73;4.72;;;12.30;99.90;;;;;;5058224;28;20084;-64
2021/12/30 09:21:23;;;;;;;14.07;4.68;;;12.30;99.90;;;;;;5066834;28;20069;-65
2021/12/30 09:23:49;;;;;;;11.05;5.28;;;12.30;99.90;;;;;;5058023;28;20029;-66
2021/12/30 09:26:15;;;;;;;12.65;5.53;;;12.40;99.90;;;;;;5059334;28;20041;-66
2021/12/30 09:28:40;;;;;;;13.07;5.40;;;12.30;99.90;;;;;;5057379;28;20392;-66
2021/12/30 09:31:06;;;;;;;15.32;6.00;;;12.30;99.90;;;;;;5064846;28;20062;-66
2021/12/30 09:33:32;;;;;;;15.95;6.60;;;12.30;99.90;;;;;;5064954;28;20032;-66
2021/12/30 09:36:01;;;;;;;19.92;7.32;;;12.30;99.90;;;;;;5055070;28;20040;-66
2021/12/30 09:38:27;;;;;;;15.02;7.13;;;12.30;99.90;;;;;;5057687;28;20048;-66
2021/12/30 09:40:52;;;;;;;14.02;7.40;;;12.30;99.90;;;;;;5064036;28;20550;-66
2021/12/30 09:43:18;;;;;;;16.48;7.32;;;12.30;99.90;;;;;;5065830;28;20036;-66
2021/12/30 09:45:44;;;;;;;14.20;7.00;;;12.30;99.90;;;;;;5065774;28;20084;-66
2021/12/30 09:48:13;;;;;;;18.05;8.52;;;12.30;99.90;;;;;;5058572;28;20036;-66
2021/12/30 09:50:51;;;;;;;15.38;6.43;;;12.40;99.90;;;;;;5065514;28;20076;-66
2021/12/30 09:53:21;;;;;;;16.05;7.60;;;12.40;99.90;;;;;;5065154;28;20468;-66
2021/12/30 09:55:48;;;;;;;14.20;6.43;;;12.40;99.90;;;;;;5067283;28;20072;-66
2021/12/30 09:58:14;;;;;;;15.02;6.97;;;12.40;99.90;;;;;;5063988;28;20086;-66
2021/12/30 10:00:40;;;;;;;12.18;6.03;;;12.40;99.90;;;;;;5061874;28;20032;-66
2021/12/30 10:03:06;;;;;;;12.73;6.55;;;12.40;99.90;;;;;;5064778;28;20724;-66
2021/12/30 10:05:35;;;;;;;12.52;6.35;;;12.40;99.90;;;;;;5064349;28;20044;-66
2021/12/30 10:08:25;;;;;;;15.57;6.55;;;12.40;99.90;;;;;;5066671;28;20035;-66
2021/12/30 10:11:06;;;;;;;17.17;6.27;;;12.40;99.90;;;;;;5063906;28;20565;-66
2021/12/30 10:13:59;;;;;;;14.38;7.50;;;12.30;99.90;;;;;;5065920;28;20041;-66
2021/12/30 10:16:37;;;;;;;16.10;6.88;;;12.30;99.90;;;;;;5058818;28;20115;-66
2021/12/30 10:19:15;;;;;;;15.65;6.32;;;12.30;99.90;;;;;;5063748;28;20339;-64
2021/12/30 10:21:53;;;;;;;14.75;5.72;;;12.30;99.90;;;;;;5055765;28;20076;-65
2021/12/30 10:24:38;;;;;;;17.60;5.22;;;12.40;99.90;;;;;;5061631;28;20125;-65
2021/12/30 10:27:34;;;;;;;16.23;5.10;;;12.40;99.90;;;;;;5053540;28;20502;-65
2021/12/30 10:30:11;;;;;;;15.23;5.40;;;12.40;99.90;;;;;;5063880;28;20726;-65
2021/12/30 10:32:49;;;;;;;22.15;5.38;;;12.40;99.90;;;;;;5059827;28;20049;-65
2021/12/30 10:35:27;;;;;;;17.05;4.65;;;12.40;99.90;;;;;;5064644;28;20441;-65
2021/12/30 10:38:11;;;;;;;21.05;5.25;;;12.40;99.90;;;;;;5053190;28;20490;-65
2021/12/30 10:40:47;;;;;;;14.75;3.97;;;12.40;99.90;;;;;;5064519;28;20041;-65
2021/12/30 10:46:23;;;;;;;19.33;5.13;;;12.40;99.90;;;;;;5062360;28;20572;-65
2021/12/30 10:49:05;;;;;;;22.38;5.15;;;12.40;99.90;;;;;;5069461;28;20040;-65
2021/12/30 10:51:35;;;;;;;26.80;5.57;;;12.40;99.90;;;;;;5061129;28;20068;-65
2021/12/30 10:54:21;;;;;;;25.30;5.93;;;12.30;99.90;;;;;;5048100;28;20043;-65
2021/12/30 10:56:54;;;;;;;25.17;5.10;;;12.40;99.90;;;;;;5067677;28;20453;-65
2021/12/30 10:59:48;;;;;;;16.60;4.88;;;12.30;99.90;;;;;;5060764;28;20037;-65
2021/12/30 11:02:17;;;;;;;18.00;4.53;;;12.40;99.90;;;;;;5064242;28;20497;-65
2021/12/30 11:04:46;;;;;;;21.83;4.70;;;12.40;99.90;;;;;;5061455;28;20064;-65
2021/12/30 11:07:19;;;;;;;24.08;5.20;;;12.40;99.90;;;;;;5064685;28;20033;-65
2021/12/30 11:09:50;;;;;;;26.38;5.40;;;12.40;99.90;;;;;;5067850;28;20044;-65
2021/12/30 11:12:23;;;;;;;32.50;5.82;;;12.40;99.90;;;;;;5064019;28;20098;-65
2021/12/30 11:14:49;;;;;;;24.90;5.80;;;12.40;99.90;;;;;;5062436;28;20040;-65
2021/12/30 11:17:21;;;;;;;30.17;5.93;;;12.40;99.90;;;;;;5067027;28;20039;-65
2021/12/30 11:19:56;;;;;;;24.50;5.78;;;12.30;99.90;;;;;;5064004;28;20044;-65
2021/12/30 11:22:26;;;;;;;29.23;5.72;;;12.30;99.90;;;;;;5064226;28;20041;-65
2021/12/30 11:24:55;;;;;;;27.90;5.43;;;12.40;99.90;;;;;;5065434;28;20028;-65
2021/12/30 11:27:24;;;;;;;28.70;5.82;;;12.40;99.90;;;;;;5062015;28;20074;-65
2021/12/30 11:29:52;;;;;;;30.45;5.75;;;12.30;99.90;;;;;;5057838;28;20087;-65
2021/12/30 11:32:21;;;;;;;31.77;6.30;;;12.40;99.90;;;;;;5056975;28;20076;-65
2021/12/30 11:34:49;;;;;;;28.70;6.20;;;12.30;99.90;;;;;;5059892;28;20145;-64
2021/12/30 11:37:16;;;;;;;33.42;6.43;;;12.30;99.90;;;;;;5064815;28;20548;-65
2021/12/30 11:39:48;;;;;;;30.33;6.10;;;12.30;99.90;;;;;;5060813;28;20581;-65
2021/12/30 11:42:37;;;;;;;28.40;5.13;;;12.30;99.90;;;;;;5065837;28;20370;-64
2021/12/30 11:45:22;;;;;;;29.27;5.82;;;12.30;99.90;;;;;;5056842;28;20256;-65
2021/12/30 11:47:49;;;;;;;27.75;5.57;;;12.30;99.90;;;;;;5066578;28;20052;-65
2021/12/30 11:50:26;;;;;;;24.73;5.03;;;12.30;99.90;;;;;;5063049;28;20051;-65
2021/12/30 11:53:00;;;;;;;25.25;4.63;;;12.30;99.90;;;;;;5068388;28;20496;-65
2021/12/30 11:56:03;;;;;;;29.25;6.25;;;12.30;99.90;;;;;;5064875;28;20175;-65
2021/12/30 12:01:02;;;;;;;25.80;5.93;;;12.30;99.90;;;;;;5067086;28;20481;-65
2021/12/30 12:03:34;;;;;;;28.25;5.70;;;12.40;99.90;;;;;;5065146;28;20043;-65
2021/12/30 12:06:00;;;;;;;22.73;4.43;;;12.40;99.90;;;;;;5062380;28;20036;-65
2021/12/30 12:08:43;;;;;;;28.92;4.68;;;12.40;99.90;;;;;;5061131;28;20434;-65
2021/12/30 12:11:21;;;;;;;24.30;4.55;;;12.40;99.90;;;;;;5063260;28;20149;-65
2021/12/30 12:13:49;;;;;;;29.27;4.97;;;12.50;99.90;;;;;;5058445;28;20051;-65
2021/12/30 12:16:55;;;;;;;29.30;4.63;;;12.40;99.90;;;;;;5055287;28;20447;-64
2021/12/30 12:19:32;;;;;;;26.98;4.90;;;12.40;99.90;;;;;;4983384;28;20180;-65
2021/12/30 12:21:58;;;;;;;27.88;4.50;;;12.50;99.90;;;;;;4981413;28;20038;-65
2021/12/30 12:24:27;;;;;;;23.10;4.22;;;12.50;99.90;;;;;;5019388;28;20049;-66
2021/12/30 12:26:56;;;;;;;29.27;4.63;;;12.50;99.90;;;;;;5058883;28;20029;-65
2021/12/30 12:29:27;;;;;;;26.80;4.75;;;12.60;99.90;;;;;;5062675;28;20032;-66
2021/12/30 12:31:58;;;;;;;35.05;5.13;;;12.50;99.90;;;;;;5056060;28;20154;-66
2021/12/30 12:34:45;;;;;;;21.45;4.57;;;12.50;99.90;;;;;;5056380;28;20529;-66
2021/12/30 12:37:29;;;;;;;27.38;5.07;;;12.50;99.90;;;;;;5057488;28;20033;-65
2021/12/30 12:40:11;;;;;;;25.55;4.95;;;12.50;99.90;;;;;;5059648;28;20086;-65
2021/12/30 12:42:43;;;;;;;26.13;4.35;;;12.50;99.90;;;;;;5060252;28;20037;-65
2021/12/30 12:45:28;;;;;;;26.63;6.00;;;12.50;99.90;;;;;;5064464;28;20032;-65
2021/12/30 12:48:16;;;;;;;22.48;4.75;;;12.60;99.90;;;;;;5061454;28;20135;-65
2021/12/30 12:50:47;;;;;;;22.02;4.72;;;12.60;99.90;;;;;;5062473;28;20440;-65
2021/12/30 12:53:26;;;;;;;22.50;4.40;;;12.70;99.90;;;;;;5064415;28;20124;-65